EFW62T ZZZZ-EGKK
Flight info
| Callsign | EFW62T |
|---|---|
| Flight time | N/A |
| Altitude | |
| Route | |
| Aircraft |
Departure
| Time | N/A |
|---|---|
| Airport | ZZZZ |
Arrival
| Time | 2026-05-04 12:11 |
|---|---|
| Airport | London Gatwick Airport (EGKK) |
| Time | Latitude | Longitude | Altitude | Speed | Heading |
|---|---|---|---|---|---|
| 2026-05-04 11:56 | 50.83928 | 0.47237 | 10317 ft | 294 kts | 307° |
| 2026-05-04 11:56 | 50.85200 | 0.44728 | 9830 ft | 290 kts | 307° |
| 2026-05-04 11:56 | 50.86443 | 0.42279 | 9365 ft | 288 kts | 307° |
| 2026-05-04 11:56 | 50.87712 | 0.39786 | 8918 ft | 286 kts | 309° |
| 2026-05-04 11:57 | 50.89015 | 0.37469 | 8485 ft | 286 kts | 311° |
| 2026-05-04 11:57 | 50.90365 | 0.35146 | 8062 ft | 286 kts | 311° |
| 2026-05-04 11:57 | 50.91715 | 0.32829 | 7611 ft | 285 kts | 311° |
| 2026-05-04 11:57 | 50.93063 | 0.30519 | 7183 ft | 285 kts | 311° |
| 2026-05-04 11:58 | 50.94383 | 0.28222 | 7003 ft | 274 kts | 307° |
| 2026-05-04 11:58 | 50.95221 | 0.25648 | 7001 ft | 255 kts | 285° |
| 2026-05-04 11:58 | 50.95648 | 0.22999 | 6990 ft | 243 kts | 282° |
| 2026-05-04 11:58 | 50.96016 | 0.20422 | 6998 ft | 242 kts | 281° |
| 2026-05-04 11:59 | 50.96389 | 0.17819 | 7002 ft | 242 kts | 281° |
| 2026-05-04 11:59 | 50.96763 | 0.15224 | 7005 ft | 241 kts | 281° |
| 2026-05-04 11:59 | 50.97135 | 0.12624 | 7004 ft | 241 kts | 281° |
| 2026-05-04 11:59 | 50.97458 | 0.10003 | 6998 ft | 241 kts | 275° |
| 2026-05-04 12:00 | 50.97581 | 0.07357 | 7009 ft | 240 kts | 271° |
| 2026-05-04 12:00 | 50.97660 | 0.04707 | 7004 ft | 241 kts | 271° |
| 2026-05-04 12:00 | 50.97730 | 0.02042 | 6900 ft | 243 kts | 271° |
| 2026-05-04 12:00 | 50.97803 | -0.00609 | 6771 ft | 240 kts | 271° |
| 2026-05-04 12:01 | 50.97871 | -0.03265 | 6623 ft | 241 kts | 271° |
| 2026-05-04 12:01 | 50.97937 | -0.05935 | 6424 ft | 242 kts | 271° |
| 2026-05-04 12:02 | 50.98295 | -0.21738 | 4422 ft | 238 kts | 271° |
| 2026-05-04 12:03 | 50.98346 | -0.24365 | 4070 ft | 237 kts | 271° |
| 2026-05-04 12:03 | 50.98391 | -0.26947 | 4004 ft | 234 kts | 271° |
| 2026-05-04 12:03 | 50.98434 | -0.29531 | 4005 ft | 235 kts | 271° |
| 2026-05-04 12:03 | 50.98476 | -0.32125 | 4006 ft | 235 kts | 271° |
| 2026-05-04 12:04 | 50.98519 | -0.34733 | 4007 ft | 235 kts | 271° |
| 2026-05-04 12:04 | 50.98594 | -0.37325 | 4003 ft | 235 kts | 280° |
| 2026-05-04 12:04 | 50.99259 | -0.39667 | 3907 ft | 237 kts | 309° |
| 2026-05-04 12:04 | 51.00351 | -0.41558 | 3624 ft | 233 kts | 315° |
| 2026-05-04 12:05 | 51.01506 | -0.43364 | 3351 ft | 233 kts | 316° |
| 2026-05-04 12:05 | 51.02658 | -0.45153 | 3089 ft | 231 kts | 316° |
| 2026-05-04 12:05 | 51.03806 | -0.46932 | 2986 ft | 231 kts | 316° |
| 2026-05-04 12:05 | 51.05103 | -0.48402 | 2997 ft | 230 kts | 341° |
| 2026-05-04 12:06 | 51.06610 | -0.49024 | 3000 ft | 217 kts | 350° |
| 2026-05-04 12:06 | 51.08079 | -0.49447 | 3010 ft | 212 kts | 351° |
| 2026-05-04 12:06 | 51.09511 | -0.49834 | 2994 ft | 210 kts | 351° |
| 2026-05-04 12:06 | 51.10958 | -0.50185 | 3004 ft | 210 kts | 358° |
| 2026-05-04 12:07 | 51.12343 | -0.49627 | 2990 ft | 207 kts | 34° |
| 2026-05-04 12:07 | 51.13245 | -0.47884 | 2954 ft | 208 kts | 68° |
| 2026-05-04 12:07 | 51.13329 | -0.45623 | 2536 ft | 209 kts | 107° |
| 2026-05-04 12:07 | 51.12849 | -0.43467 | 2425 ft | 206 kts | 108° |
| 2026-05-04 12:08 | 51.12417 | -0.41290 | 2323 ft | 205 kts | 107° |
| 2026-05-04 12:08 | 51.12213 | -0.39055 | 2224 ft | 205 kts | 89° |
| 2026-05-04 12:08 | 51.12374 | -0.36805 | 2144 ft | 202 kts | 80° |
| 2026-05-04 12:08 | 51.12638 | -0.34724 | 1988 ft | 182 kts | 78° |
| 2026-05-04 12:09 | 51.12899 | -0.32829 | 1780 ft | 166 kts | 78° |
| 2026-05-04 12:09 | 51.13139 | -0.31101 | 1572 ft | 153 kts | 77° |
| 2026-05-04 12:09 | 51.13364 | -0.29484 | 1367 ft | 146 kts | 77° |
| 2026-05-04 12:09 | 51.13582 | -0.27916 | 1169 ft | 144 kts | 77° |
| 2026-05-04 12:10 | 51.13794 | -0.26395 | 971 ft | 141 kts | 76° |
| 2026-05-04 12:10 | 51.14007 | -0.24857 | 781 ft | 140 kts | 76° |
| 2026-05-04 12:10 | 51.14211 | -0.23363 | 589 ft | 139 kts | 78° |
| 2026-05-04 12:10 | 51.14423 | -0.21840 | 361 ft | 138 kts | 77° |
| 2026-05-04 12:11 | 51.14625 | -0.20381 | 251 ft | 137 kts | 77° |
| 2026-05-04 12:11 | 51.14827 | -0.18944 | 213 ft | 120 kts | 77° |
| 2026-05-04 12:11 | 51.14967 | -0.17912 | 206 ft | 71 kts | 78° |
| 2026-05-04 12:11 | 51.15053 | -0.17407 | 210 ft | 29 kts | 67° |
| 2026-05-04 12:12 | 51.15128 | -0.17218 | 211 ft | 15 kts | 26° |
| 2026-05-04 12:12 | 51.15173 | -0.17232 | 213 ft | 2 kts | 325° |
| 2026-05-04 12:12 | 51.15176 | -0.17235 | 212 ft | 0 kts | 325° |
| 2026-05-04 12:13 | 51.15177 | -0.17236 | 212 ft | 1 kts | 325° |
| 2026-05-04 12:14 | 51.15383 | -0.17211 | 204 ft | 10 kts | 76° |
| 2026-05-04 12:15 | 51.15408 | -0.17102 | 212 ft | 10 kts | 71° |
| 2026-05-04 12:15 | 51.15424 | -0.16999 | 207 ft | 10 kts | 78° |
| 2026-05-04 12:15 | 51.15440 | -0.16883 | 206 ft | 12 kts | 77° |
| 2026-05-04 12:15 | 51.15448 | -0.16755 | 212 ft | 12 kts | 100° |
| 2026-05-04 12:16 | 51.15452 | -0.16630 | 211 ft | 10 kts | 78° |
| 2026-05-04 12:16 | 51.15462 | -0.16559 | 214 ft | 4 kts | 77° |
| 2026-05-04 12:16 | 51.15484 | -0.16524 | 206 ft | 5 kts | 19° |
| 2026-05-04 12:16 | 51.15520 | -0.16529 | 206 ft | 2 kts | 350° |
| 2026-05-04 12:17 | 51.15536 | -0.16534 | 212 ft | 2 kts | 348° |
| 2026-05-04 12:17 | 51.15541 | -0.16536 | 210 ft | 0 kts | 348° |